• Join FlightAware (Why Join?)
  • Login
  • US Flag 
01:27AM EDT


 

Airport Tracker/Info


-or-


 

Live Flight TrackerFlight Track Log ✈ SWA1182 ✈ 07-Jun-2014 ✈ KSTL - KSAT

Flight Track Log - Related Links

Times and Time Zones

All times are in EDT time to prevent confusion due to time zone crossing. See the SWA1182 flight status page for this flight to view local times or setup timezone preferences in your user account.

Time Position Orientation Groundspeed Altitude Reporting Facility
EDT Latitude Longitude Course Direction KTS MPH feet Rate Location/Type
06:13PM 38.7833 -90.4333 240° Southwest 204 235 3,800  Level Gateway (St. Louis) TRACON
06:14PM 38.7411 -90.5033 232° Southwest 235 270 6,600 1,440 Climbing Kansas City Center
06:15PM 38.6911 -90.5603 222° Southwest 242 278 7,000 180 Climbing Kansas City Center
06:16PM 38.6414 -90.6164 221° Southwest 242 278 7,000 1,260 Level Kansas City Center
06:17PM 38.5897 -90.6744 221° Southwest 246 283 9,700 2,400 Climbing Kansas City Center
06:18PM 38.4158 -90.7153 240° Southwest  Level FlightAware Approximate
06:18PM 38.5283 -90.7447 222° Southwest 292 336 12,000  Level Kansas City Center
06:19PM 38.4575 -90.8236 221° Southwest 336 387 15,300 3,300 Climbing Kansas City Center
06:20PM 38.3836 -90.9072 222° Southwest 350 403 18,900 3,300 Climbing Kansas City Center
06:21PM 38.2900 -91.0117 221° Southwest 370 426 22,100 2,760 Climbing Kansas City Center
06:22PM 38.2086 -91.1014 221° Southwest 383 441 24,600 2,100 Climbing Kansas City Center
06:23PM 38.1269 -91.1931 221° Southwest 401 461 26,400 1,980 Climbing Kansas City Center
06:24PM 38.0375 -91.2936 222° Southwest 420 483 28,600 1,980 Climbing Kansas City Center
06:26PM 37.9458 -91.3953 221° Southwest 428 493 30,600 2,220 Climbing Kansas City Center
06:27PM 37.8547 -91.4956 221° Southwest 431 496 33,300 2,520 Climbing Kansas City Center
06:28PM 37.7672 -91.5925 221° Southwest 421 484 35,800 2,460 Climbing Kansas City Center
06:29PM 37.6694 -91.7014 221° Southwest 400 460 38,400 1,980 Climbing Kansas City Center
06:30PM 37.5897 -91.7883 221° Southwest 388 447 39,900 780 Climbing Kansas City Center
06:31PM 37.5114 -91.8794 223° Southwest 383 441 40,000  Climbing Kansas City Center
06:32PM 37.4344 -91.9719 224° Southwest 383 441 40,000  Level Kansas City Center
06:33PM 37.3553 -92.0650 223° Southwest 383 441 40,000  Level Kansas City Center
06:34PM 37.2761 -92.1567 223° Southwest 384 442 40,000  Level Kansas City Center
06:35PM 37.1964 -92.2483 222° Southwest 384 442 40,000  Level Kansas City Center
06:36PM 37.1161 -92.3414 223° Southwest 384 442 40,000  Level Kansas City Center
06:37PM 37.0361 -92.4342 223° Southwest 385 443 40,000  Level Kansas City Center
06:38PM 36.9544 -92.5272 222° Southwest 392 451 40,000  Level Kansas City Center
06:39PM 36.8747 -92.6186 223° Southwest 392 451 40,000  Level Kansas City Center
06:40PM 36.7942 -92.7103 222° Southwest 392 451 40,000  Level Kansas City Center
06:41PM 36.7136 -92.8003 222° Southwest 391 450 40,000  Level Kansas City Center
06:42PM 36.6183 -92.9106 223° Southwest 391 450 40,000  Level Kansas City Center
06:43PM 36.5431 -92.9925 221° Southwest 387 445 40,000  Level Kansas City Center
06:44PM 36.4639 -93.0817 222° Southwest 387 445 40,000  Level Kansas City Center
06:45PM 36.3828 -93.1736 222° Southwest 387 445 40,000  Level Memphis Center
06:46PM 36.3014 -93.2669 223° Southwest 394 453 40,000  Level Memphis Center
06:47PM 36.2192 -93.3592 222° Southwest 397 457 40,000  Level Memphis Center
06:48PM 36.1369 -93.4503 222° Southwest 397 457 40,000  Level Memphis Center
06:49PM 36.0553 -93.5417 222° Southwest 397 457 40,000  Level Memphis Center
06:50PM 35.9742 -93.6311 222° Southwest 397 457 40,000  Level Memphis Center
06:51PM 35.8756 -93.7394 222° Southwest 397 457 40,000  Level Memphis Center
06:52PM 35.7933 -93.8311 222° Southwest 397 457 40,000  Level Memphis Center
06:53PM 35.7103 -93.9217 222° Southwest 397 457 40,000  Level Memphis Center
06:54PM 35.6261 -94.0128 221° Southwest 400 460 40,000  Level Memphis Center
06:55PM 35.5433 -94.1033 222° Southwest 400 460 40,000  Level Memphis Center
06:56PM 35.4600 -94.1950 222° Southwest 400 460 40,000  Level Memphis Center
06:57PM 35.3756 -94.2839 221° Southwest 400 460 40,000  Level Memphis Center
06:58PM 35.2786 -94.3564 211° Southwest 404 465 40,000  Level Memphis Center
06:59PM 35.1644 -94.4442 212° Southwest 404 465 40,000  Level Memphis Center
07:00PM 35.0675 -94.5183 212° Southwest 407 468 40,000  Level Memphis Center
07:01PM 34.9694 -94.5908 211° Southwest 409 471 40,000  Level Memphis Center
07:02PM 34.8597 -94.6764 213° Southwest 417 480 40,000  Level Memphis Center
07:03PM 34.7611 -94.7481 211° Southwest 420 483 40,000  Level Memphis Center
07:05PM 34.6425 -94.8389 212° Southwest 425 489 40,000  Level Fort Worth Center
07:06PM 34.5419 -94.9153 212° Southwest 426 490 40,000  Level Fort Worth Center
07:07PM 34.4425 -94.9881 211° Southwest 424 488 40,000  Level Fort Worth Center
07:08PM 34.3419 -95.0644 212° Southwest 425 489 40,000  Level Fort Worth Center
07:09PM 34.2431 -95.1383 212° Southwest 422 486 40,000  Level Fort Worth Center
07:10PM 34.1233 -95.2272 212° Southwest 422 486 40,000  Level Fort Worth Center
07:11PM 34.0233 -95.3006 211° Southwest 422 486 40,000  Level Fort Worth Center
07:12PM 33.9236 -95.3750 212° Southwest 423 487 40,000  Level Fort Worth Center
07:13PM 33.8236 -95.4483 211° Southwest 422 486 40,000  Level Fort Worth Center
07:14PM 33.7253 -95.5208 212° Southwest 418 481 40,000  Level Fort Worth Center
07:15PM 33.6167 -95.5997 211° Southwest 419 482 40,000  Level Fort Worth Center
07:16PM 33.5178 -95.6728 212° Southwest 418 481 40,000  Level Fort Worth Center
07:17PM 33.4175 -95.7456 211° Southwest 420 483 40,000  Level Fort Worth Center
07:18PM 33.3158 -95.8172 211° Southwest 420 483 40,000  Level Fort Worth Center
07:19PM 33.1950 -95.9056 211° Southwest 421 484 40,000  Level Fort Worth Center
07:20PM 33.0947 -95.9778 211° Southwest 421 484 40,000  Level Fort Worth Center
07:21PM 32.9922 -96.0517 211° Southwest 423 487 40,000  Level Fort Worth Center
07:22PM 32.8894 -96.1250 211° Southwest 428 493 40,000  Level Fort Worth Center
07:23PM 32.7881 -96.1981 211° Southwest 427 491 40,000  Level Fort Worth Center
07:24PM 32.6858 -96.2711 211° Southwest 427 491 40,000  Level Fort Worth Center
07:25PM 32.5839 -96.3425 211° Southwest 425 489 40,000  Level Fort Worth Center
07:26PM 32.4617 -96.4294 211° Southwest 425 489 40,000  Level Fort Worth Center
07:27PM 32.3611 -96.5019 211° Southwest 424 488 40,000  Level Fort Worth Center
07:28PM 32.2611 -96.5722 211° Southwest 422 486 40,000  Level Fort Worth Center
07:29PM 32.1606 -96.6425 211° Southwest 420 483 40,000  Level Fort Worth Center
07:30PM 32.0600 -96.7144 211° Southwest 420 483 40,000  Level Fort Worth Center
07:31PM 31.9489 -96.7911 210° Southwest 420 483 40,000  Level Fort Worth Center
07:32PM 31.8486 -96.8625 211° Southwest 420 483 40,000  Level Fort Worth Center
07:33PM 31.7483 -96.9325 211° Southwest 420 483 40,000  Level Fort Worth Center
07:34PM 31.6481 -97.0025 211° Southwest 420 483 40,000  Level Fort Worth Center
07:35PM 31.5472 -97.0719 210° Southwest 420 483 40,000  Level Fort Worth Center
07:36PM 31.4347 -97.1214 201° Southwest 434 499 40,000 -300 Level Fort Worth Center
07:37PM 31.3206 -97.1656 198° South 434 499 39,400 -840 Descending Fort Worth Center
07:38PM 31.1819 -97.2203 199° South 438 504 38,300 -1,020 Descending Fort Worth Center
07:40PM 31.0661 -97.2664 199° South 440 506 37,300 -1,260 Descending Fort Worth Center
07:41PM 30.9325 -97.3181 198° South 450 518 35,700 -2,040 Descending Fort Worth Center
07:42PM 30.8106 -97.3639 198° South 456 525 33,100 -2,400 Descending Fort Worth Center
07:43PM 30.6950 -97.4075 198° South 445 512 30,800 -2,280 Descending Fort Worth Center
07:44PM 30.5847 -97.4506 199° South 426 490 28,500 -2,160 Descending Fort Worth Center
07:45PM 30.4775 -97.4919 198° South 411 473 26,400 -2,400 Descending Fort Worth Center
07:46PM 30.3764 -97.5325 199° South 393 452 23,700 -2,340 Descending Fort Worth Center
07:47PM 30.2906 -97.5906 210° Southwest 364 419 21,700 -2,100 Descending Fort Worth Center
07:48PM 30.1900 -97.6583 210° Southwest 350 403 19,400 -2,040 Descending Fort Worth Center
07:49PM 30.1100 -97.7142 211° Southwest 342 394 17,500 -1,800 Descending Fort Worth Center
07:50PM 30.0314 -97.7686 211° Southwest 334 384 15,700 -1,740 Descending Fort Worth Center
07:51PM 29.9561 -97.8217 211° Southwest 322 371 14,000 -1,980 Descending Fort Worth Center
07:52PM 29.8808 -97.8928 219° Southwest 300 345 11,600 -1,980 Descending Houston Center
07:53PM 29.8447 -97.9769 244° Southwest 287 330 10,000 -1,740 Descending Houston Center
07:54PM 29.8100 -98.0536 242° Southwest 266 306 8,200 -1,620 Descending Houston Center
07:55PM 29.7744 -98.1325 243° Southwest 261 300 6,600 -1,320 Descending Houston Center
07:56PM 29.7419 -98.2017 242° Southwest 245 282 5,500 -840 Descending Houston Center
07:57PM 29.7122 -98.2656 242° Southwest 199 229 5,000 -600 Descending Houston Center
07:58PM 29.6847 -98.3097 234° Southwest 163 188 4,400 -780 Descending Houston Center
07:59PM 29.6483 -98.3453 220° Southwest 165 190 3,500 -900 Descending Houston Center
08:00PM 29.6136 -98.3808 222° Southwest 171 197 2,600 -900 Descending Houston Center
08:01PM 29.5772 -98.4161 220° Southwest 160 184 1,700 -780 Descending Houston Center
08:02PM 29.5522 -98.4411 221° Southwest 125 144 1,100 -660 Descending Houston Center